createdAt,value
2023-04-18T00:01:47.831Z,1.73
2023-04-18T00:06:51.602Z,1.65
2023-04-18T00:11:54.510Z,2.33
2023-04-18T00:16:57.727Z,1.52
2023-04-18T00:22:00.198Z,1.67
2023-04-18T00:27:02.736Z,1.50
2023-04-18T00:32:05.267Z,2.00
2023-04-18T00:37:08.098Z,1.50
2023-04-18T00:42:10.655Z,2.05
2023-04-18T00:47:13.235Z,2.22
2023-04-18T00:52:17.049Z,1.90
2023-04-18T00:57:19.457Z,2.00
2023-04-18T01:02:22.551Z,2.53
2023-04-18T01:07:26.863Z,1.83
2023-04-18T01:12:32.388Z,1.60
2023-04-18T01:17:35.771Z,2.03
2023-04-18T01:22:38.202Z,2.20
2023-04-18T01:27:43.804Z,2.10
2023-04-18T01:32:46.797Z,1.90
2023-04-18T01:37:49.194Z,1.95
2023-04-18T01:42:52.086Z,1.65
2023-04-18T01:47:54.580Z,1.77
2023-04-18T01:52:56.993Z,2.13
2023-04-18T01:57:59.362Z,1.73
2023-04-18T02:03:02.214Z,2.67
2023-04-18T02:08:04.955Z,1.95
2023-04-18T02:13:07.698Z,1.60
2023-04-18T02:18:11.784Z,1.92
2023-04-18T02:23:15.404Z,1.83
2023-04-18T02:28:17.931Z,2.25
2023-04-18T02:33:20.357Z,2.38
2023-04-18T02:38:22.840Z,2.28
2023-04-18T02:43:27.869Z,2.10
2023-04-18T02:48:30.509Z,2.83
2023-04-18T02:53:33.651Z,1.90
2023-04-18T02:58:36.636Z,2.30
2023-04-18T03:04:17.746Z,2.38
2023-04-18T03:09:29.071Z,2.45
2023-04-18T03:14:38.294Z,2.00
2023-04-18T03:19:41.457Z,2.58
2023-04-18T03:24:46.972Z,2.33
2023-04-18T03:29:50.974Z,2.30
2023-04-18T03:34:54.606Z,2.85
2023-04-18T03:39:57.868Z,3.30
2023-04-18T03:45:03.590Z,2.67
2023-04-18T03:50:09.832Z,2.28
2023-04-18T03:55:13.773Z,2.40
2023-04-18T04:00:16.605Z,2.63
2023-04-18T04:05:18.911Z,2.00
2023-04-18T04:10:22.194Z,2.10
2023-04-18T04:15:25.769Z,1.90
2023-04-18T04:20:36.992Z,2.00
2023-04-18T04:25:46.626Z,1.83
2023-04-18T04:31:10.649Z,1.50
2023-04-18T04:36:18.879Z,1.73
2023-04-18T04:41:23.622Z,1.73
2023-04-18T04:46:29.698Z,2.10
2023-04-18T04:51:34.320Z,2.03
2023-04-18T04:56:37.210Z,2.25
2023-04-18T05:01:40.607Z,1.83
2023-04-18T05:06:43.261Z,2.08
2023-04-18T05:11:45.712Z,1.73
2023-04-18T05:16:48.180Z,1.80
2023-04-18T05:21:50.504Z,1.65
2023-04-18T05:26:53.277Z,1.73
2023-04-18T05:31:55.738Z,1.90
2023-04-18T05:36:58.180Z,1.60
2023-04-18T05:42:01.061Z,2.20
2023-04-18T05:47:06.938Z,1.90
2023-04-18T05:52:09.319Z,3.10
2023-04-18T05:57:11.737Z,1.95
2023-04-18T06:02:14.415Z,1.65
2023-04-18T06:07:17.234Z,1.83
2023-04-18T06:12:19.618Z,2.10
2023-04-18T06:17:22.133Z,1.90
2023-04-18T06:22:24.717Z,1.83
2023-04-18T06:27:31.689Z,1.83
2023-04-18T06:32:34.832Z,1.70
2023-04-18T06:37:37.403Z,1.70
2023-04-18T06:42:39.799Z,2.03
2023-04-18T06:47:42.323Z,3.58
2023-04-18T06:52:45.917Z,2.35
2023-04-18T06:57:48.351Z,2.10
2023-04-18T07:02:50.948Z,2.40
2023-04-18T07:07:53.496Z,1.63
2023-04-18T07:12:55.998Z,2.33
2023-04-18T07:17:58.476Z,5.60
2023-04-18T07:23:00.905Z,3.10
2023-04-18T07:28:03.314Z,3.67
2023-04-18T07:33:06.602Z,3.60
2023-04-18T07:38:08.983Z,2.40
2023-04-18T07:43:11.420Z,3.72
2023-04-18T07:48:14.014Z,4.68
2023-04-18T07:53:17.069Z,3.65
2023-04-18T07:58:19.429Z,3.38
2023-04-18T08:03:21.953Z,3.05
2023-04-18T08:08:24.497Z,2.70
2023-04-18T08:13:26.839Z,2.17
2023-04-18T08:18:29.562Z,4.10
2023-04-18T08:23:32.067Z,1.80
2023-04-18T08:28:34.532Z,2.45
2023-04-18T08:33:37.022Z,2.85
2023-04-18T08:38:39.478Z,3.40
2023-04-18T08:43:42.040Z,2.20
2023-04-18T08:48:44.877Z,1.90
2023-04-18T08:53:48.665Z,2.13
2023-04-18T08:58:51.200Z,1.48
2023-04-18T09:03:53.619Z,1.40
2023-04-18T09:08:59.127Z,1.40
2023-04-18T09:14:02.770Z,1.60
2023-04-18T09:19:19.257Z,2.20
2023-04-18T09:24:29.654Z,1.17
2023-04-18T09:29:58.024Z,1.35
2023-04-18T09:35:04.610Z,1.30
2023-04-18T09:40:18.835Z,1.55
2023-04-18T09:45:24.580Z,1.05
2023-04-18T09:50:27.198Z,1.73
2023-04-18T09:55:31.828Z,1.30
2023-04-18T10:00:35.370Z,1.40
2023-04-18T10:10:42.443Z,1.13
2023-04-18T10:15:46.667Z,1.33
2023-04-18T10:20:49.357Z,1.65
2023-04-18T10:25:51.980Z,1.80
2023-04-18T10:31:04.008Z,1.60
2023-04-18T10:36:09.581Z,1.50
2023-04-18T10:41:16.102Z,1.98
2023-04-18T10:46:30.988Z,1.40
2023-04-18T10:51:34.534Z,1.85
2023-04-18T10:56:37.155Z,1.55
2023-04-18T11:01:47.092Z,1.50
2023-04-18T11:06:57.444Z,2.42
2023-04-18T11:12:11.008Z,1.35
2023-04-18T11:17:24.184Z,1.65
2023-04-18T11:22:27.240Z,1.67
2023-04-18T11:27:30.030Z,1.73
2023-04-18T11:32:34.736Z,1.83
2023-04-18T11:37:38.451Z,1.35
2023-04-18T11:42:41.604Z,1.58
2023-04-18T11:47:45.200Z,1.85
2023-04-18T11:52:51.488Z,1.58
2023-04-18T11:57:59.188Z,1.58
2023-04-18T12:03:05.533Z,1.40
2023-04-18T12:08:13.570Z,1.20
2023-04-18T12:13:16.397Z,1.58
2023-04-18T12:18:22.248Z,1.50
2023-04-18T12:23:42.741Z,2.00
2023-04-18T12:28:46.468Z,1.55
2023-04-18T12:33:48.918Z,1.45
2023-04-18T12:38:51.656Z,1.50
2023-04-18T12:43:53.941Z,1.02
2023-04-18T12:48:59.197Z,0.98
2023-04-18T12:54:01.908Z,1.60
2023-04-18T12:59:04.670Z,1.30
2023-04-18T13:04:12.402Z,1.52
2023-04-18T13:09:16.869Z,1.10
2023-04-18T13:14:19.212Z,1.42
2023-04-18T13:19:21.743Z,1.08
2023-04-18T13:24:24.141Z,1.00
2023-04-18T13:29:26.595Z,1.00
2023-04-18T13:34:28.894Z,1.20
2023-04-18T13:39:33.014Z,1.50
2023-04-18T13:49:38.524Z,1.17
2023-04-18T13:54:41.726Z,1.58
2023-04-18T13:59:44.175Z,0.98
2023-04-18T14:04:46.702Z,1.30
2023-04-18T14:09:49.473Z,1.60
2023-04-18T14:14:52.263Z,1.35
2023-04-18T14:19:54.732Z,1.50
2023-04-18T14:24:57.155Z,1.35
2023-04-18T14:30:00.126Z,1.42
2023-04-18T14:35:07.363Z,1.33
2023-04-18T14:40:11.430Z,1.40
2023-04-18T14:45:13.995Z,1.52
2023-04-18T14:50:16.361Z,1.20
2023-04-18T14:55:20.320Z,1.17
2023-04-18T15:00:23.395Z,1.40
2023-04-18T15:05:26.831Z,1.48
2023-04-18T15:10:29.208Z,1.48
2023-04-18T15:15:31.800Z,1.55
2023-04-18T15:20:35.908Z,1.80
2023-04-18T15:25:38.479Z,1.58
2023-04-18T15:30:41.015Z,1.45
2023-04-18T15:35:43.520Z,1.30
2023-04-18T15:40:46.050Z,1.45
2023-04-18T15:45:49.129Z,1.40
2023-04-18T15:50:52.588Z,1.42
2023-04-18T15:55:55.040Z,1.50
2023-04-18T16:00:57.689Z,1.38
2023-04-18T16:06:00.164Z,1.67
2023-04-18T16:11:02.630Z,1.50
2023-04-18T16:16:05.773Z,1.52
2023-04-18T16:21:08.289Z,1.80
2023-04-18T16:26:10.621Z,1.38
2023-04-18T16:31:15.615Z,1.65
2023-04-18T16:36:18.352Z,1.50
2023-04-18T16:41:20.827Z,1.80
2023-04-18T16:46:23.283Z,1.70
2023-04-18T16:51:26.530Z,1.58
2023-04-18T16:56:29.915Z,1.67
2023-04-18T17:01:34.163Z,2.40
2023-04-18T17:06:36.633Z,1.70
2023-04-18T17:11:41.173Z,2.78
2023-04-18T17:16:43.715Z,2.38
2023-04-18T17:21:46.553Z,2.53
2023-04-18T17:26:49.499Z,1.85
2023-04-18T17:31:51.980Z,2.20
2023-04-18T17:36:54.327Z,1.90
2023-04-18T17:41:56.705Z,1.92
2023-04-18T17:46:59.102Z,1.83
2023-04-18T17:52:02.066Z,1.90
2023-04-18T17:57:04.755Z,1.45
2023-04-18T18:02:07.442Z,1.40
2023-04-18T18:07:09.898Z,1.20
2023-04-18T18:12:12.378Z,1.40
2023-04-18T18:17:14.817Z,2.78
2023-04-18T18:22:18.053Z,1.33
2023-04-18T18:27:20.640Z,1.20
2023-04-18T18:32:23.263Z,3.10
2023-04-18T18:37:26.833Z,1.42
2023-04-18T18:42:29.266Z,1.50
2023-04-18T18:47:31.877Z,1.20
2023-04-18T18:52:34.470Z,1.02
2023-04-18T18:57:37.914Z,1.30
2023-04-18T19:02:40.729Z,1.33
2023-04-18T19:07:43.344Z,1.02
2023-04-18T19:12:45.861Z,0.90
2023-04-18T19:17:48.276Z,0.90
2023-04-18T19:22:50.672Z,1.20
2023-04-18T19:27:53.165Z,1.17
2023-04-18T19:32:55.678Z,1.00
2023-04-18T19:38:01.811Z,1.48
2023-04-18T19:43:04.239Z,1.00
2023-04-18T19:48:06.858Z,1.08
2023-04-18T19:53:09.453Z,0.75
2023-04-18T19:58:11.856Z,1.98
2023-04-18T20:03:16.525Z,1.00
2023-04-18T20:13:39.716Z,0.70
2023-04-18T20:18:42.202Z,1.17
2023-04-18T20:24:03.788Z,0.73
2023-04-18T20:29:24.962Z,1.38
2023-04-18T20:34:27.650Z,1.33
2023-04-18T20:40:06.960Z,1.42
2023-04-18T20:45:28.170Z,1.35
2023-04-18T20:50:51.741Z,1.08
2023-04-18T20:55:54.488Z,1.80
2023-04-18T21:00:56.966Z,1.10
2023-04-18T21:06:19.460Z,0.90
2023-04-18T21:11:21.833Z,1.08
2023-04-18T21:16:24.650Z,1.08
2023-04-18T21:21:27.456Z,0.90
2023-04-18T21:26:29.873Z,0.80
2023-04-18T21:31:33.802Z,0.93
2023-04-18T21:36:36.261Z,2.50
2023-04-18T21:41:38.688Z,2.05
2023-04-18T21:46:41.109Z,2.20
2023-04-18T21:51:43.657Z,1.50
2023-04-18T21:56:46.159Z,1.02
2023-04-18T22:02:07.291Z,1.08
2023-04-18T22:07:10.269Z,0.88
2023-04-18T22:12:31.054Z,1.13
2023-04-18T22:17:35.120Z,1.10
2023-04-18T22:22:55.964Z,0.93
2023-04-18T22:27:58.358Z,1.60
2023-04-18T22:33:19.609Z,1.88
2023-04-18T22:38:22.091Z,1.70
2023-04-18T22:43:25.136Z,1.60
2023-04-18T22:48:27.446Z,1.67
2023-04-18T22:53:29.776Z,1.73
2023-04-18T22:58:32.315Z,1.80
2023-04-18T23:03:34.867Z,1.92
2023-04-18T23:08:37.274Z,2.40
2023-04-18T23:13:39.650Z,2.13
2023-04-18T23:18:42.060Z,2.17
2023-04-18T23:23:44.383Z,2.47
2023-04-18T23:28:46.794Z,1.85
2023-04-18T23:33:49.233Z,2.40
2023-04-18T23:38:51.708Z,2.50
2023-04-18T23:43:54.139Z,2.30
2023-04-18T23:48:57.002Z,2.45
2023-04-18T23:53:59.430Z,2.50
2023-04-18T23:59:01.860Z,2.05
